sensor_id;sensor_type;location;lat;lon;timestamp;P1;durP1;ratioP1;P2;durP2;ratioP2
79212;SDS011;68639;52.380;9.822;2023-04-25T00:01:07;20.87;;;6.90;;
79212;SDS011;68639;52.380;9.822;2023-04-25T00:03:33;19.57;;;6.03;;
79212;SDS011;68639;52.380;9.822;2023-04-25T00:06:00;17.73;;;6.47;;
79212;SDS011;68639;52.380;9.822;2023-04-25T00:08:28;19.43;;;6.07;;
79212;SDS011;68639;52.380;9.822;2023-04-25T00:10:54;18.13;;;6.40;;
79212;SDS011;68639;52.380;9.822;2023-04-25T00:13:19;18.33;;;6.40;;
79212;SDS011;68639;52.380;9.822;2023-04-25T00:15:45;17.60;;;5.73;;
79212;SDS011;68639;52.380;9.822;2023-04-25T00:18:11;18.77;;;5.77;;
79212;SDS011;68639;52.380;9.822;2023-04-25T00:20:36;22.33;;;7.03;;
79212;SDS011;68639;52.380;9.822;2023-04-25T00:23:01;15.93;;;5.97;;
79212;SDS011;68639;52.380;9.822;2023-04-25T00:25:27;18.93;;;6.60;;
79212;SDS011;68639;52.380;9.822;2023-04-25T00:27:52;17.07;;;5.93;;
79212;SDS011;68639;52.380;9.822;2023-04-25T00:30:17;17.67;;;6.50;;
79212;SDS011;68639;52.380;9.822;2023-04-25T00:32:42;19.27;;;6.67;;
79212;SDS011;68639;52.380;9.822;2023-04-25T00:35:08;18.00;;;6.43;;
79212;SDS011;68639;52.380;9.822;2023-04-25T00:37:34;15.43;;;6.40;;
79212;SDS011;68639;52.380;9.822;2023-04-25T00:39:59;17.17;;;6.27;;
79212;SDS011;68639;52.380;9.822;2023-04-25T00:42:25;18.43;;;6.07;;
79212;SDS011;68639;52.380;9.822;2023-04-25T00:44:51;15.97;;;5.93;;
79212;SDS011;68639;52.380;9.822;2023-04-25T00:47:17;15.50;;;5.47;;
79212;SDS011;68639;52.380;9.822;2023-04-25T00:49:42;16.20;;;5.80;;
79212;SDS011;68639;52.380;9.822;2023-04-25T00:52:08;17.00;;;6.07;;
79212;SDS011;68639;52.380;9.822;2023-04-25T00:54:33;18.33;;;6.13;;
79212;SDS011;68639;52.380;9.822;2023-04-25T00:56:58;17.23;;;5.67;;
79212;SDS011;68639;52.380;9.822;2023-04-25T00:59:23;20.90;;;5.97;;
79212;SDS011;68639;52.380;9.822;2023-04-25T01:01:49;22.47;;;6.13;;
79212;SDS011;68639;52.380;9.822;2023-04-25T01:04:15;15.73;;;5.57;;
79212;SDS011;68639;52.380;9.822;2023-04-25T01:06:40;14.97;;;5.60;;
79212;SDS011;68639;52.380;9.822;2023-04-25T01:09:05;21.97;;;5.73;;
79212;SDS011;68639;52.380;9.822;2023-04-25T01:11:32;12.50;;;5.83;;
79212;SDS011;68639;52.380;9.822;2023-04-25T01:13:57;20.00;;;6.17;;
79212;SDS011;68639;52.380;9.822;2023-04-25T01:16:22;19.87;;;5.93;;
79212;SDS011;68639;52.380;9.822;2023-04-25T01:18:49;18.83;;;5.67;;
79212;SDS011;68639;52.380;9.822;2023-04-25T01:21:15;16.83;;;6.70;;
79212;SDS011;68639;52.380;9.822;2023-04-25T01:23:41;19.33;;;6.90;;
79212;SDS011;68639;52.380;9.822;2023-04-25T01:26:07;15.33;;;7.00;;
79212;SDS011;68639;52.380;9.822;2023-04-25T01:28:33;18.63;;;6.50;;
79212;SDS011;68639;52.380;9.822;2023-04-25T01:30:58;17.73;;;6.10;;
79212;SDS011;68639;52.380;9.822;2023-04-25T01:33:24;18.37;;;6.80;;
79212;SDS011;68639;52.380;9.822;2023-04-25T01:35:49;16.33;;;6.50;;
79212;SDS011;68639;52.380;9.822;2023-04-25T01:38:14;16.53;;;6.30;;
79212;SDS011;68639;52.380;9.822;2023-04-25T01:40:40;22.90;;;7.70;;
79212;SDS011;68639;52.380;9.822;2023-04-25T01:43:05;21.50;;;7.10;;
79212;SDS011;68639;52.380;9.822;2023-04-25T01:45:31;19.60;;;7.50;;
79212;SDS011;68639;52.380;9.822;2023-04-25T01:47:56;22.27;;;8.10;;
79212;SDS011;68639;52.380;9.822;2023-04-25T01:50:24;19.00;;;7.50;;
79212;SDS011;68639;52.380;9.822;2023-04-25T01:52:49;17.57;;;7.20;;
79212;SDS011;68639;52.380;9.822;2023-04-25T01:55:14;23.20;;;8.30;;
79212;SDS011;68639;52.380;9.822;2023-04-25T01:57:39;15.70;;;6.37;;
79212;SDS011;68639;52.380;9.822;2023-04-25T02:00:05;16.67;;;7.13;;
79212;SDS011;68639;52.380;9.822;2023-04-25T02:02:31;17.00;;;6.70;;
79212;SDS011;68639;52.380;9.822;2023-04-25T02:04:57;22.07;;;7.27;;
79212;SDS011;68639;52.380;9.822;2023-04-25T02:07:22;18.43;;;6.73;;
79212;SDS011;68639;52.380;9.822;2023-04-25T02:09:47;18.93;;;7.53;;
79212;SDS011;68639;52.380;9.822;2023-04-25T02:12:12;22.20;;;8.13;;
79212;SDS011;68639;52.380;9.822;2023-04-25T02:14:38;17.27;;;7.40;;
79212;SDS011;68639;52.380;9.822;2023-04-25T02:17:03;21.03;;;8.00;;
79212;SDS011;68639;52.380;9.822;2023-04-25T02:19:28;20.90;;;8.57;;
79212;SDS011;68639;52.380;9.822;2023-04-25T02:21:54;20.57;;;7.80;;
79212;SDS011;68639;52.380;9.822;2023-04-25T02:24:20;20.77;;;8.93;;
79212;SDS011;68639;52.380;9.822;2023-04-25T02:26:45;22.10;;;8.20;;
79212;SDS011;68639;52.380;9.822;2023-04-25T02:29:11;22.03;;;8.57;;
79212;SDS011;68639;52.380;9.822;2023-04-25T02:31:37;18.30;;;8.80;;
79212;SDS011;68639;52.380;9.822;2023-04-25T02:34:02;22.67;;;8.07;;
79212;SDS011;68639;52.380;9.822;2023-04-25T02:36:27;20.87;;;7.60;;
79212;SDS011;68639;52.380;9.822;2023-04-25T02:38:54;17.07;;;7.27;;
79212;SDS011;68639;52.380;9.822;2023-04-25T02:41:20;23.23;;;7.67;;
79212;SDS011;68639;52.380;9.822;2023-04-25T02:43:45;19.87;;;7.57;;
79212;SDS011;68639;52.380;9.822;2023-04-25T02:46:11;18.67;;;6.40;;
79212;SDS011;68639;52.380;9.822;2023-04-25T02:48:36;19.97;;;6.70;;
79212;SDS011;68639;52.380;9.822;2023-04-25T02:51:01;15.33;;;6.40;;
79212;SDS011;68639;52.380;9.822;2023-04-25T02:53:26;22.17;;;5.97;;
79212;SDS011;68639;52.380;9.822;2023-04-25T02:55:51;19.07;;;5.43;;
79212;SDS011;68639;52.380;9.822;2023-04-25T02:58:17;22.73;;;6.00;;
79212;SDS011;68639;52.380;9.822;2023-04-25T03:00:43;21.40;;;5.93;;
79212;SDS011;68639;52.380;9.822;2023-04-25T03:03:08;26.27;;;6.27;;
79212;SDS011;68639;52.380;9.822;2023-04-25T03:05:33;24.77;;;5.57;;
79212;SDS011;68639;52.380;9.822;2023-04-25T03:07:58;23.17;;;6.00;;
79212;SDS011;68639;52.380;9.822;2023-04-25T03:10:23;30.27;;;7.00;;
79212;SDS011;68639;52.380;9.822;2023-04-25T03:12:49;29.17;;;5.87;;
79212;SDS011;68639;52.380;9.822;2023-04-25T03:15:14;28.10;;;5.90;;
79212;SDS011;68639;52.380;9.822;2023-04-25T03:17:41;30.53;;;5.53;;
79212;SDS011;68639;52.380;9.822;2023-04-25T03:20:07;24.70;;;5.40;;
79212;SDS011;68639;52.380;9.822;2023-04-25T03:22:33;24.93;;;5.40;;
79212;SDS011;68639;52.380;9.822;2023-04-25T03:24:58;27.37;;;6.03;;
79212;SDS011;68639;52.380;9.822;2023-04-25T03:27:23;26.97;;;5.67;;
79212;SDS011;68639;52.380;9.822;2023-04-25T03:29:48;30.33;;;7.07;;
79212;SDS011;68639;52.380;9.822;2023-04-25T03:32:14;30.37;;;6.13;;
79212;SDS011;68639;52.380;9.822;2023-04-25T03:34:39;31.53;;;6.13;;
79212;SDS011;68639;52.380;9.822;2023-04-25T03:37:05;29.93;;;5.60;;
79212;SDS011;68639;52.380;9.822;2023-04-25T03:39:30;34.63;;;7.37;;
79212;SDS011;68639;52.380;9.822;2023-04-25T03:41:55;34.50;;;6.70;;
79212;SDS011;68639;52.380;9.822;2023-04-25T03:44:20;29.37;;;5.20;;
79212;SDS011;68639;52.380;9.822;2023-04-25T03:46:46;27.37;;;5.73;;
79212;SDS011;68639;52.380;9.822;2023-04-25T03:49:11;37.87;;;6.67;;
79212;SDS011;68639;52.380;9.822;2023-04-25T03:51:36;34.43;;;7.20;;
79212;SDS011;68639;52.380;9.822;2023-04-25T03:54:01;28.53;;;5.30;;
79212;SDS011;68639;52.380;9.822;2023-04-25T03:56:26;36.37;;;6.83;;
79212;SDS011;68639;52.380;9.822;2023-04-25T03:58:52;33.53;;;6.20;;
79212;SDS011;68639;52.380;9.822;2023-04-25T04:01:17;30.93;;;6.57;;
79212;SDS011;68639;52.380;9.822;2023-04-25T04:03:42;29.27;;;5.57;;
79212;SDS011;68639;52.380;9.822;2023-04-25T04:06:07;31.33;;;6.57;;
79212;SDS011;68639;52.380;9.822;2023-04-25T04:08:34;32.73;;;6.13;;
79212;SDS011;68639;52.380;9.822;2023-04-25T04:10:59;34.93;;;6.00;;
79212;SDS011;68639;52.380;9.822;2023-04-25T04:13:27;26.47;;;5.60;;
79212;SDS011;68639;52.380;9.822;2023-04-25T04:15:53;31.23;;;5.80;;
79212;SDS011;68639;52.380;9.822;2023-04-25T04:18:18;27.67;;;5.40;;
79212;SDS011;68639;52.380;9.822;2023-04-25T04:20:43;22.93;;;5.20;;
79212;SDS011;68639;52.380;9.822;2023-04-25T04:23:09;35.43;;;5.97;;
79212;SDS011;68639;52.380;9.822;2023-04-25T04:25:34;29.90;;;6.20;;
79212;SDS011;68639;52.380;9.822;2023-04-25T04:27:59;31.83;;;5.20;;
79212;SDS011;68639;52.380;9.822;2023-04-25T04:30:26;26.23;;;5.10;;
79212;SDS011;68639;52.380;9.822;2023-04-25T04:32:54;34.87;;;5.87;;
79212;SDS011;68639;52.380;9.822;2023-04-25T04:35:20;29.17;;;5.10;;
79212;SDS011;68639;52.380;9.822;2023-04-25T04:37:45;30.33;;;5.57;;
79212;SDS011;68639;52.380;9.822;2023-04-25T04:40:11;30.60;;;5.50;;
79212;SDS011;68639;52.380;9.822;2023-04-25T04:42:36;34.23;;;5.83;;
79212;SDS011;68639;52.380;9.822;2023-04-25T04:45:02;38.87;;;6.80;;
79212;SDS011;68639;52.380;9.822;2023-04-25T04:47:29;36.60;;;6.07;;
79212;SDS011;68639;52.380;9.822;2023-04-25T04:49:56;30.00;;;5.80;;
79212;SDS011;68639;52.380;9.822;2023-04-25T04:52:21;37.10;;;6.50;;
79212;SDS011;68639;52.380;9.822;2023-04-25T04:54:46;37.30;;;6.53;;
79212;SDS011;68639;52.380;9.822;2023-04-25T04:57:12;30.03;;;5.70;;
79212;SDS011;68639;52.380;9.822;2023-04-25T04:59:37;42.00;;;6.40;;
79212;SDS011;68639;52.380;9.822;2023-04-25T05:02:02;36.97;;;5.67;;
79212;SDS011;68639;52.380;9.822;2023-04-25T05:04:28;32.57;;;5.90;;
79212;SDS011;68639;52.380;9.822;2023-04-25T05:06:53;33.63;;;5.70;;
79212;SDS011;68639;52.380;9.822;2023-04-25T05:09:18;26.53;;;4.87;;
79212;SDS011;68639;52.380;9.822;2023-04-25T05:11:44;31.27;;;5.57;;
79212;SDS011;68639;52.380;9.822;2023-04-25T05:14:09;27.70;;;4.80;;
79212;SDS011;68639;52.380;9.822;2023-04-25T05:16:34;31.83;;;6.03;;
79212;SDS011;68639;52.380;9.822;2023-04-25T05:19:00;26.37;;;5.00;;
79212;SDS011;68639;52.380;9.822;2023-04-25T05:21:25;25.13;;;4.97;;
79212;SDS011;68639;52.380;9.822;2023-04-25T05:23:50;30.77;;;5.07;;
79212;SDS011;68639;52.380;9.822;2023-04-25T05:26:15;24.27;;;5.23;;
79212;SDS011;68639;52.380;9.822;2023-04-25T05:28:41;27.23;;;5.20;;
79212;SDS011;68639;52.380;9.822;2023-04-25T05:31:06;29.97;;;4.90;;
79212;SDS011;68639;52.380;9.822;2023-04-25T05:33:32;31.87;;;5.40;;
79212;SDS011;68639;52.380;9.822;2023-04-25T05:35:57;38.13;;;5.43;;
79212;SDS011;68639;52.380;9.822;2023-04-25T05:38:22;26.80;;;5.77;;
79212;SDS011;68639;52.380;9.822;2023-04-25T05:40:47;28.50;;;5.00;;
79212;SDS011;68639;52.380;9.822;2023-04-25T05:43:13;30.13;;;5.67;;
79212;SDS011;68639;52.380;9.822;2023-04-25T05:45:38;23.23;;;4.70;;
79212;SDS011;68639;52.380;9.822;2023-04-25T05:48:03;23.17;;;5.03;;
79212;SDS011;68639;52.380;9.822;2023-04-25T05:50:28;33.33;;;5.17;;
79212;SDS011;68639;52.380;9.822;2023-04-25T05:52:54;30.97;;;5.10;;
79212;SDS011;68639;52.380;9.822;2023-04-25T05:55:19;27.93;;;5.13;;
79212;SDS011;68639;52.380;9.822;2023-04-25T05:57:44;29.87;;;5.20;;
79212;SDS011;68639;52.380;9.822;2023-04-25T06:00:11;25.93;;;4.40;;
79212;SDS011;68639;52.380;9.822;2023-04-25T06:02:36;25.10;;;4.80;;
79212;SDS011;68639;52.380;9.822;2023-04-25T06:05:01;33.43;;;4.83;;
79212;SDS011;68639;52.380;9.822;2023-04-25T06:07:28;28.33;;;5.10;;
79212;SDS011;68639;52.380;9.822;2023-04-25T06:09:53;20.10;;;4.47;;
79212;SDS011;68639;52.380;9.822;2023-04-25T06:12:19;31.50;;;5.23;;
79212;SDS011;68639;52.380;9.822;2023-04-25T06:14:44;24.60;;;4.53;;
79212;SDS011;68639;52.380;9.822;2023-04-25T06:17:10;22.77;;;4.67;;
79212;SDS011;68639;52.380;9.822;2023-04-25T06:19:35;24.70;;;4.73;;
79212;SDS011;68639;52.380;9.822;2023-04-25T06:22:00;32.27;;;5.17;;
79212;SDS011;68639;52.380;9.822;2023-04-25T06:24:25;23.57;;;4.53;;
79212;SDS011;68639;52.380;9.822;2023-04-25T06:26:51;26.10;;;5.13;;
79212;SDS011;68639;52.380;9.822;2023-04-25T06:29:16;31.87;;;5.50;;
79212;SDS011;68639;52.380;9.822;2023-04-25T06:31:41;31.57;;;5.60;;
79212;SDS011;68639;52.380;9.822;2023-04-25T06:34:06;23.00;;;4.60;;
79212;SDS011;68639;52.380;9.822;2023-04-25T06:36:32;25.97;;;5.53;;
79212;SDS011;68639;52.380;9.822;2023-04-25T06:38:57;25.17;;;4.67;;
79212;SDS011;68639;52.380;9.822;2023-04-25T06:41:22;30.17;;;4.87;;
79212;SDS011;68639;52.380;9.822;2023-04-25T06:43:47;28.37;;;5.00;;
79212;SDS011;68639;52.380;9.822;2023-04-25T06:46:12;24.50;;;4.67;;
79212;SDS011;68639;52.380;9.822;2023-04-25T06:48:38;26.67;;;5.03;;
79212;SDS011;68639;52.380;9.822;2023-04-25T06:51:03;28.37;;;4.63;;
79212;SDS011;68639;52.380;9.822;2023-04-25T06:53:28;23.37;;;4.47;;
79212;SDS011;68639;52.380;9.822;2023-04-25T06:55:53;21.57;;;4.60;;
79212;SDS011;68639;52.380;9.822;2023-04-25T06:58:19;23.53;;;4.10;;
79212;SDS011;68639;52.380;9.822;2023-04-25T07:00:44;22.53;;;4.60;;
79212;SDS011;68639;52.380;9.822;2023-04-25T07:03:09;19.83;;;4.00;;
79212;SDS011;68639;52.380;9.822;2023-04-25T07:05:35;20.77;;;4.47;;
79212;SDS011;68639;52.380;9.822;2023-04-25T07:08:00;29.03;;;5.17;;
79212;SDS011;68639;52.380;9.822;2023-04-25T07:10:25;23.13;;;4.20;;
79212;SDS011;68639;52.380;9.822;2023-04-25T07:12:51;24.77;;;4.97;;
79212;SDS011;68639;52.380;9.822;2023-04-25T07:15:16;22.40;;;4.27;;
79212;SDS011;68639;52.380;9.822;2023-04-25T07:17:41;28.03;;;4.30;;
79212;SDS011;68639;52.380;9.822;2023-04-25T07:20:07;22.00;;;4.40;;
79212;SDS011;68639;52.380;9.822;2023-04-25T07:22:34;19.40;;;3.73;;
79212;SDS011;68639;52.380;9.822;2023-04-25T07:24:59;21.37;;;3.70;;
79212;SDS011;68639;52.380;9.822;2023-04-25T07:27:24;24.70;;;4.13;;
79212;SDS011;68639;52.380;9.822;2023-04-25T07:29:49;23.37;;;4.77;;
79212;SDS011;68639;52.380;9.822;2023-04-25T07:32:15;19.37;;;3.67;;
79212;SDS011;68639;52.380;9.822;2023-04-25T07:34:40;21.53;;;3.90;;
79212;SDS011;68639;52.380;9.822;2023-04-25T07:37:06;14.30;;;2.83;;
79212;SDS011;68639;52.380;9.822;2023-04-25T07:39:31;17.60;;;3.77;;
79212;SDS011;68639;52.380;9.822;2023-04-25T07:41:56;16.47;;;3.60;;
79212;SDS011;68639;52.380;9.822;2023-04-25T07:44:23;15.43;;;3.67;;
79212;SDS011;68639;52.380;9.822;2023-04-25T07:46:48;17.97;;;3.33;;
79212;SDS011;68639;52.380;9.822;2023-04-25T07:49:14;19.13;;;4.13;;
79212;SDS011;68639;52.380;9.822;2023-04-25T07:51:39;23.17;;;4.00;;
79212;SDS011;68639;52.380;9.822;2023-04-25T07:54:04;18.50;;;3.57;;
79212;SDS011;68639;52.380;9.822;2023-04-25T07:56:30;15.73;;;3.30;;
79212;SDS011;68639;52.380;9.822;2023-04-25T07:58:55;16.83;;;3.53;;
79212;SDS011;68639;52.380;9.822;2023-04-25T08:01:21;19.30;;;3.70;;
79212;SDS011;68639;52.380;9.822;2023-04-25T08:03:47;17.97;;;3.50;;
79212;SDS011;68639;52.380;9.822;2023-04-25T08:06:12;21.40;;;4.13;;
79212;SDS011;68639;52.380;9.822;2023-04-25T08:08:37;16.57;;;3.30;;
79212;SDS011;68639;52.380;9.822;2023-04-25T08:11:02;13.87;;;2.87;;
79212;SDS011;68639;52.380;9.822;2023-04-25T08:13:28;17.40;;;3.13;;
79212;SDS011;68639;52.380;9.822;2023-04-25T08:15:53;17.53;;;2.90;;
79212;SDS011;68639;52.380;9.822;2023-04-25T08:18:19;19.50;;;3.13;;
79212;SDS011;68639;52.380;9.822;2023-04-25T08:20:45;17.10;;;3.23;;
79212;SDS011;68639;52.380;9.822;2023-04-25T08:23:10;18.27;;;2.93;;
79212;SDS011;68639;52.380;9.822;2023-04-25T08:25:35;16.40;;;3.40;;
79212;SDS011;68639;52.380;9.822;2023-04-25T08:28:01;24.77;;;4.00;;
79212;SDS011;68639;52.380;9.822;2023-04-25T08:30:27;18.60;;;3.40;;
79212;SDS011;68639;52.380;9.822;2023-04-25T08:32:53;16.80;;;3.00;;
79212;SDS011;68639;52.380;9.822;2023-04-25T08:35:19;14.03;;;2.70;;
79212;SDS011;68639;52.380;9.822;2023-04-25T08:37:45;15.83;;;2.60;;
79212;SDS011;68639;52.380;9.822;2023-04-25T08:40:11;14.00;;;2.57;;
79212;SDS011;68639;52.380;9.822;2023-04-25T08:42:37;16.70;;;3.43;;
79212;SDS011;68639;52.380;9.822;2023-04-25T08:45:02;16.50;;;3.33;;
79212;SDS011;68639;52.380;9.822;2023-04-25T08:47:31;16.83;;;2.90;;
79212;SDS011;68639;52.380;9.822;2023-04-25T08:49:58;15.77;;;2.53;;
79212;SDS011;68639;52.380;9.822;2023-04-25T08:52:24;17.13;;;3.27;;
79212;SDS011;68639;52.380;9.822;2023-04-25T08:54:52;11.80;;;2.40;;
79212;SDS011;68639;52.380;9.822;2023-04-25T08:57:19;14.73;;;2.90;;
79212;SDS011;68639;52.380;9.822;2023-04-25T08:59:45;15.30;;;2.83;;
79212;SDS011;68639;52.380;9.822;2023-04-25T09:02:11;15.47;;;3.10;;
79212;SDS011;68639;52.380;9.822;2023-04-25T09:04:39;16.13;;;2.93;;
79212;SDS011;68639;52.380;9.822;2023-04-25T09:07:04;12.90;;;3.10;;
79212;SDS011;68639;52.380;9.822;2023-04-25T09:09:30;12.50;;;2.73;;
79212;SDS011;68639;52.380;9.822;2023-04-25T09:11:55;18.73;;;2.90;;
79212;SDS011;68639;52.380;9.822;2023-04-25T09:14:21;14.10;;;2.63;;
79212;SDS011;68639;52.380;9.822;2023-04-25T09:19:22;14.70;;;2.33;;
79212;SDS011;68639;52.380;9.822;2023-04-25T09:21:50;9.10;;;2.40;;
79212;SDS011;68639;52.380;9.822;2023-04-25T09:24:16;15.17;;;1.77;;
79212;SDS011;68639;52.380;9.822;2023-04-25T09:26:41;10.90;;;2.23;;
79212;SDS011;68639;52.380;9.822;2023-04-25T09:29:07;12.37;;;2.17;;
79212;SDS011;68639;52.380;9.822;2023-04-25T09:31:32;9.47;;;2.30;;
79212;SDS011;68639;52.380;9.822;2023-04-25T09:34:00;6.87;;;1.70;;
79212;SDS011;68639;52.380;9.822;2023-04-25T09:36:26;9.70;;;2.10;;
79212;SDS011;68639;52.380;9.822;2023-04-25T09:38:51;12.70;;;2.03;;
79212;SDS011;68639;52.380;9.822;2023-04-25T09:41:23;9.20;;;1.80;;
79212;SDS011;68639;52.380;9.822;2023-04-25T09:43:49;7.83;;;1.80;;
79212;SDS011;68639;52.380;9.822;2023-04-25T09:46:15;8.53;;;1.90;;
79212;SDS011;68639;52.380;9.822;2023-04-25T09:48:43;13.60;;;2.00;;
79212;SDS011;68639;52.380;9.822;2023-04-25T09:51:13;6.33;;;1.83;;
79212;SDS011;68639;52.380;9.822;2023-04-25T09:53:42;8.30;;;1.87;;
79212;SDS011;68639;52.380;9.822;2023-04-25T09:56:08;10.10;;;2.10;;
79212;SDS011;68639;52.380;9.822;2023-04-25T09:58:35;6.33;;;1.43;;
79212;SDS011;68639;52.380;9.822;2023-04-25T10:01:01;8.73;;;2.10;;
79212;SDS011;68639;52.380;9.822;2023-04-25T10:03:29;8.27;;;1.87;;
79212;SDS011;68639;52.380;9.822;2023-04-25T10:05:54;11.75;;;1.85;;
79212;SDS011;68639;52.380;9.822;2023-04-25T10:08:20;10.83;;;2.57;;
79212;SDS011;68639;52.380;9.822;2023-04-25T10:10:47;9.90;;;2.77;;
79212;SDS011;68639;52.380;9.822;2023-04-25T10:13:13;9.07;;;2.13;;
79212;SDS011;68639;52.380;9.822;2023-04-25T10:15:39;11.87;;;2.13;;
79212;SDS011;68639;52.380;9.822;2023-04-25T10:18:05;11.57;;;2.23;;
79212;SDS011;68639;52.380;9.822;2023-04-25T10:20:31;11.90;;;2.00;;
79212;SDS011;68639;52.380;9.822;2023-04-25T10:22:58;9.40;;;1.90;;
79212;SDS011;68639;52.380;9.822;2023-04-25T10:25:26;9.15;;;1.83;;
79212;SDS011;68639;52.380;9.822;2023-04-25T10:27:52;6.87;;;1.90;;
79212;SDS011;68639;52.380;9.822;2023-04-25T10:30:17;9.20;;;1.70;;
79212;SDS011;68639;52.380;9.822;2023-04-25T10:32:43;9.17;;;2.00;;
79212;SDS011;68639;52.380;9.822;2023-04-25T10:35:12;11.47;;;1.90;;
79212;SDS011;68639;52.380;9.822;2023-04-25T10:37:37;7.47;;;1.70;;
79212;SDS011;68639;52.380;9.822;2023-04-25T10:40:09;10.13;;;2.27;;
79212;SDS011;68639;52.380;9.822;2023-04-25T10:42:35;12.40;;;2.07;;
79212;SDS011;68639;52.380;9.822;2023-04-25T10:45:01;18.57;;;3.07;;
79212;SDS011;68639;52.380;9.822;2023-04-25T10:47:43;16.93;;;2.57;;
79212;SDS011;68639;52.380;9.822;2023-04-25T10:50:09;9.13;;;2.03;;
79212;SDS011;68639;52.380;9.822;2023-04-25T10:52:34;14.93;;;1.90;;
79212;SDS011;68639;52.380;9.822;2023-04-25T10:55:00;10.27;;;2.50;;
79212;SDS011;68639;52.380;9.822;2023-04-25T10:59:57;12.03;;;2.00;;
79212;SDS011;68639;52.380;9.822;2023-04-25T11:02:23;14.67;;;2.27;;
79212;SDS011;68639;52.380;9.822;2023-04-25T11:04:51;12.37;;;2.20;;
79212;SDS011;68639;52.380;9.822;2023-04-25T11:09:50;10.17;;;2.23;;
79212;SDS011;68639;52.380;9.822;2023-04-25T11:12:15;10.97;;;2.07;;
79212;SDS011;68639;52.380;9.822;2023-04-25T11:14:42;7.77;;;1.90;;
79212;SDS011;68639;52.380;9.822;2023-04-25T11:17:07;6.72;;;1.90;;
79212;SDS011;68639;52.380;9.822;2023-04-25T11:19:32;8.60;;;1.97;;
79212;SDS011;68639;52.380;9.822;2023-04-25T11:21:58;7.23;;;1.93;;
79212;SDS011;68639;52.380;9.822;2023-04-25T11:24:27;7.27;;;1.63;;
79212;SDS011;68639;52.380;9.822;2023-04-25T11:26:52;6.77;;;1.47;;
79212;SDS011;68639;52.380;9.822;2023-04-25T11:29:17;9.80;;;1.80;;
79212;SDS011;68639;52.380;9.822;2023-04-25T11:31:43;9.27;;;1.57;;
79212;SDS011;68639;52.380;9.822;2023-04-25T11:34:09;9.38;;;1.98;;
79212;SDS011;68639;52.380;9.822;2023-04-25T11:36:34;8.15;;;1.95;;
79212;SDS011;68639;52.380;9.822;2023-04-25T11:39:02;11.33;;;2.10;;
79212;SDS011;68639;52.380;9.822;2023-04-25T11:41:27;12.20;;;2.47;;
79212;SDS011;68639;52.380;9.822;2023-04-25T11:43:52;14.33;;;2.30;;
79212;SDS011;68639;52.380;9.822;2023-04-25T11:46:19;9.43;;;1.90;;
79212;SDS011;68639;52.380;9.822;2023-04-25T11:48:45;10.00;;;2.20;;
79212;SDS011;68639;52.380;9.822;2023-04-25T11:51:10;8.57;;;2.17;;
79212;SDS011;68639;52.380;9.822;2023-04-25T11:53:36;13.93;;;2.83;;
79212;SDS011;68639;52.380;9.822;2023-04-25T11:56:01;10.17;;;2.53;;
79212;SDS011;68639;52.380;9.822;2023-04-25T11:58:26;14.63;;;2.40;;
79212;SDS011;68639;52.380;9.822;2023-04-25T12:00:52;11.50;;;2.27;;
79212;SDS011;68639;52.380;9.822;2023-04-25T12:03:17;10.13;;;2.73;;
79212;SDS011;68639;52.380;9.822;2023-04-25T12:05:43;12.47;;;2.77;;
79212;SDS011;68639;52.380;9.822;2023-04-25T12:08:10;10.23;;;3.17;;
79212;SDS011;68639;52.380;9.822;2023-04-25T12:10:37;12.50;;;2.93;;
79212;SDS011;68639;52.380;9.822;2023-04-25T12:13:17;11.10;;;2.43;;
79212;SDS011;68639;52.380;9.822;2023-04-25T12:15:42;8.77;;;2.50;;
79212;SDS011;68639;52.380;9.822;2023-04-25T12:18:07;7.40;;;2.20;;
79212;SDS011;68639;52.380;9.822;2023-04-25T12:20:32;9.27;;;2.37;;
79212;SDS011;68639;52.380;9.822;2023-04-25T12:22:58;10.43;;;2.00;;
79212;SDS011;68639;52.380;9.822;2023-04-25T12:33:20;9.00;;;1.47;;
79212;SDS011;68639;52.380;9.822;2023-04-25T12:35:45;5.53;;;1.30;;
79212;SDS011;68639;52.380;9.822;2023-04-25T12:38:11;6.63;;;1.67;;
79212;SDS011;68639;52.380;9.822;2023-04-25T12:40:36;7.67;;;1.37;;
79212;SDS011;68639;52.380;9.822;2023-04-25T12:43:01;5.53;;;1.30;;
79212;SDS011;68639;52.380;9.822;2023-04-25T12:45:26;8.60;;;1.47;;
79212;SDS011;68639;52.380;9.822;2023-04-25T12:47:52;13.23;;;1.83;;
79212;SDS011;68639;52.380;9.822;2023-04-25T12:50:17;3.30;;;0.80;;
79212;SDS011;68639;52.380;9.822;2023-04-25T12:52:42;11.80;;;1.80;;
79212;SDS011;68639;52.380;9.822;2023-04-25T12:55:07;10.30;;;1.20;;
79212;SDS011;68639;52.380;9.822;2023-04-25T12:57:33;5.00;;;1.00;;
79212;SDS011;68639;52.380;9.822;2023-04-25T12:59:58;2.93;;;0.73;;
79212;SDS011;68639;52.380;9.822;2023-04-25T13:02:23;6.43;;;1.10;;
79212;SDS011;68639;52.380;9.822;2023-04-25T13:04:48;4.67;;;1.03;;
79212;SDS011;68639;52.380;9.822;2023-04-25T13:07:14;7.67;;;1.30;;
79212;SDS011;68639;52.380;9.822;2023-04-25T13:09:39;6.77;;;1.30;;
79212;SDS011;68639;52.380;9.822;2023-04-25T13:12:04;5.30;;;1.10;;
79212;SDS011;68639;52.380;9.822;2023-04-25T13:14:30;6.37;;;1.10;;
79212;SDS011;68639;52.380;9.822;2023-04-25T13:16:55;8.93;;;1.10;;
79212;SDS011;68639;52.380;9.822;2023-04-25T13:19:21;5.80;;;1.10;;
79212;SDS011;68639;52.380;9.822;2023-04-25T13:21:46;8.93;;;1.30;;
79212;SDS011;68639;52.380;9.822;2023-04-25T13:24:11;6.33;;;1.30;;
79212;SDS011;68639;52.380;9.822;2023-04-25T13:26:36;6.03;;;1.17;;
79212;SDS011;68639;52.380;9.822;2023-04-25T13:29:01;7.27;;;1.30;;
79212;SDS011;68639;52.380;9.822;2023-04-25T13:31:28;7.90;;;1.63;;
79212;SDS011;68639;52.380;9.822;2023-04-25T13:33:53;5.73;;;1.10;;
79212;SDS011;68639;52.380;9.822;2023-04-25T13:36:19;5.40;;;1.37;;
79212;SDS011;68639;52.380;9.822;2023-04-25T13:38:44;7.13;;;1.53;;
79212;SDS011;68639;52.380;9.822;2023-04-25T13:41:12;6.73;;;1.63;;
79212;SDS011;68639;52.380;9.822;2023-04-25T13:43:42;4.90;;;1.37;;
79212;SDS011;68639;52.380;9.822;2023-04-25T13:46:07;10.47;;;1.57;;
79212;SDS011;68639;52.380;9.822;2023-04-25T13:48:33;10.90;;;1.70;;
79212;SDS011;68639;52.380;9.822;2023-04-25T13:50:58;10.17;;;1.37;;
79212;SDS011;68639;52.380;9.822;2023-04-25T13:53:23;6.83;;;1.70;;
79212;SDS011;68639;52.380;9.822;2023-04-25T13:55:49;7.03;;;1.70;;
79212;SDS011;68639;52.380;9.822;2023-04-25T13:58:15;6.33;;;1.93;;
79212;SDS011;68639;52.380;9.822;2023-04-25T14:00:40;21.57;;;1.97;;
79212;SDS011;68639;52.380;9.822;2023-04-25T14:03:08;6.83;;;1.97;;
79212;SDS011;68639;52.380;9.822;2023-04-25T14:05:33;5.73;;;1.17;;
79212;SDS011;68639;52.380;9.822;2023-04-25T14:08:02;7.70;;;1.73;;
79212;SDS011;68639;52.380;9.822;2023-04-25T14:10:28;5.20;;;1.23;;
79212;SDS011;68639;52.380;9.822;2023-04-25T14:12:53;6.57;;;1.40;;
79212;SDS011;68639;52.380;9.822;2023-04-25T14:15:18;5.47;;;1.40;;
79212;SDS011;68639;52.380;9.822;2023-04-25T14:17:43;4.83;;;1.50;;
79212;SDS011;68639;52.380;9.822;2023-04-25T14:20:10;6.57;;;1.57;;
79212;SDS011;68639;52.380;9.822;2023-04-25T14:22:36;5.70;;;1.50;;
79212;SDS011;68639;52.380;9.822;2023-04-25T14:25:02;7.03;;;2.10;;
79212;SDS011;68639;52.380;9.822;2023-04-25T14:27:27;5.03;;;1.80;;
79212;SDS011;68639;52.380;9.822;2023-04-25T14:29:52;7.37;;;1.33;;
79212;SDS011;68639;52.380;9.822;2023-04-25T14:32:18;5.80;;;1.50;;
79212;SDS011;68639;52.380;9.822;2023-04-25T14:34:43;9.67;;;2.60;;
79212;SDS011;68639;52.380;9.822;2023-04-25T14:37:08;8.87;;;1.73;;
79212;SDS011;68639;52.380;9.822;2023-04-25T14:39:34;5.30;;;1.73;;
79212;SDS011;68639;52.380;9.822;2023-04-25T14:41:59;5.63;;;1.50;;
79212;SDS011;68639;52.380;9.822;2023-04-25T14:44:24;7.40;;;1.67;;